Time;durP1;ratioP1;P1;durP2;ratioP2;P2;SDS_P1;SDS_P2;PMS_P1;PMS_P2;Temp;Humidity;BMP_temperature;BMP_pressure;BME280_temperature;BME280_humidity;BME280_pressure;Samples;Min_cycle;Max_cycle;Signal;HPM_P1;HPM_P2
2023/05/07 00:01:49;;;;;;;8.57;7.40;;;;;;;;;;4986522;28;20084;-61
2023/05/07 00:04:15;;;;;;;8.07;7.28;;;;;;;;;;4983301;28;20477;-60
2023/05/07 00:06:40;;;;;;;7.13;6.43;;;;;;;;;;4986348;28;20034;-61
2023/05/07 00:09:06;;;;;;;7.13;5.53;;;;;;;;;;4985179;28;20125;-60
2023/05/07 00:11:32;;;;;;;6.65;5.97;;;;;;;;;;4986150;28;20035;-60
2023/05/07 00:13:58;;;;;;;7.38;6.18;;;;;;;;;;4982362;28;20073;-60
2023/05/07 00:16:23;;;;;;;7.20;6.18;;;;;;;;;;4984985;28;20137;-61
2023/05/07 00:18:49;;;;;;;7.93;6.60;;;;;;;;;;4983702;28;20029;-60
2023/05/07 00:21:14;;;;;;;7.30;6.63;;;;;;;;;;4984780;28;20474;-61
2023/05/07 00:23:40;;;;;;;9.82;6.00;;;;;;;;;;4982834;28;20089;-61
2023/05/07 00:26:05;;;;;;;5.63;5.13;;;;;;;;;;4983488;28;20038;-61
2023/05/07 00:28:31;;;;;;;7.00;5.13;;;;;;;;;;4987847;28;20039;-61
2023/05/07 00:30:56;;;;;;;5.63;5.07;;;;;;;;;;4984524;28;20512;-61
2023/05/07 00:33:22;;;;;;;6.25;4.97;;;;;;;;;;4987059;28;20065;-61
2023/05/07 00:35:48;;;;;;;5.00;4.50;;;;;;;;;;4982235;28;20496;-59
2023/05/07 00:38:13;;;;;;;6.22;5.00;;;;;;;;;;4996454;28;20041;-60
2023/05/07 00:40:39;;;;;;;6.60;5.05;;;;;;;;;;4984559;28;20037;-60
2023/05/07 00:43:04;;;;;;;6.20;5.68;;;;;;;;;;4983637;28;20030;-61
2023/05/07 00:45:30;;;;;;;6.38;5.20;;;;;;;;;;4981544;28;20097;-60
2023/05/07 00:47:57;;;;;;;6.03;5.30;;;;;;;;;;4983948;28;20065;-60
2023/05/07 00:50:22;;;;;;;6.68;5.35;;;;;;;;;;4982740;28;20038;-60
2023/05/07 00:52:48;;;;;;;5.65;5.15;;;;;;;;;;4988153;28;20495;-61
2023/05/07 00:55:14;;;;;;;5.60;5.10;;;;;;;;;;4983882;28;20454;-59
2023/05/07 00:57:40;;;;;;;6.53;5.93;;;;;;;;;;4984609;28;20129;-59
2023/05/07 01:00:08;;;;;;;5.70;5.20;;;;;;;;;;4982921;28;20045;-61
2023/05/07 01:02:34;;;;;;;6.30;5.70;;;;;;;;;;4984705;28;20595;-60
2023/05/07 01:05:00;;;;;;;6.38;5.70;;;;;;;;;;4985255;28;20030;-60
2023/05/07 01:07:26;;;;;;;6.47;5.88;;;;;;;;;;4988315;28;20125;-60
2023/05/07 01:09:51;;;;;;;10.73;5.47;;;;;;;;;;4987778;28;20427;-61
2023/05/07 01:12:17;;;;;;;9.07;5.63;;;;;;;;;;4981045;28;20041;-60
2023/05/07 01:14:43;;;;;;;7.07;5.13;;;;;;;;;;4986344;28;20034;-61
2023/05/07 01:17:08;;;;;;;6.15;5.40;;;;;;;;;;4980554;28;20133;-61
2023/05/07 01:19:34;;;;;;;5.93;5.03;;;;;;;;;;4984549;28;20145;-61
2023/05/07 01:22:07;;;;;;;5.35;4.65;;;;;;;;;;4986751;28;20601;-60
2023/05/07 01:24:38;;;;;;;6.22;5.10;;;;;;;;;;4976791;28;20058;-61
2023/05/07 01:27:05;;;;;;;5.18;4.70;;;;;;;;;;4975051;28;20433;-61
2023/05/07 01:29:32;;;;;;;5.13;4.63;;;;;;;;;;4985034;28;20038;-60
2023/05/07 01:31:59;;;;;;;6.18;5.47;;;;;;;;;;4983126;28;20389;-61
2023/05/07 01:34:26;;;;;;;6.50;5.88;;;;;;;;;;5000318;28;20069;-60
2023/05/07 01:36:53;;;;;;;5.97;5.47;;;;;;;;;;4977568;28;20034;-60
2023/05/07 01:39:19;;;;;;;5.20;4.60;;;;;;;;;;4979050;28;20498;-60
2023/05/07 01:41:44;;;;;;;8.70;4.88;;;;;;;;;;4983718;28;20137;-60
2023/05/07 01:44:12;;;;;;;5.60;4.32;;;;;;;;;;4973687;28;20096;-60
2023/05/07 01:46:37;;;;;;;4.78;4.30;;;;;;;;;;4982353;28;20034;-60
2023/05/07 01:49:03;;;;;;;4.90;4.05;;;;;;;;;;4987320;28;20448;-61
2023/05/07 01:51:29;;;;;;;5.22;3.97;;;;;;;;;;4983928;28;20827;-60
2023/05/07 01:53:55;;;;;;;15.00;5.20;;;;;;;;;;4984538;28;20034;-61
2023/05/07 01:56:23;;;;;;;4.03;3.65;;;;;;;;;;4981372;28;20038;-63
2023/05/07 01:58:49;;;;;;;4.35;3.95;;;;;;;;;;4987587;28;20030;-60
2023/05/07 02:01:14;;;;;;;4.93;4.00;;;;;;;;;;4983410;28;20033;-59
2023/05/07 02:03:41;;;;;;;4.57;4.18;;;;;;;;;;4982366;28;20030;-60
2023/05/07 02:06:14;;;;;;;5.65;4.68;;;;;;;;;;4983407;28;20558;-59
2023/05/07 02:08:39;;;;;;;4.90;4.50;;;;;;;;;;4996518;28;20049;-61
2023/05/07 02:11:05;;;;;;;6.07;5.15;;;;;;;;;;4989087;28;20521;-62
2023/05/07 02:13:32;;;;;;;5.35;4.85;;;;;;;;;;4983469;28;20050;-62
2023/05/07 02:15:57;;;;;;;5.40;4.90;;;;;;;;;;4985045;28;20046;-63
2023/05/07 02:18:24;;;;;;;5.55;4.20;;;;;;;;;;4986249;28;20497;-60
2023/05/07 02:20:49;;;;;;;5.78;4.55;;;;;;;;;;4986829;28;20522;-61
2023/05/07 02:23:15;;;;;;;5.95;4.60;;;;;;;;;;4986231;28;20046;-61
2023/05/07 02:25:40;;;;;;;4.88;4.28;;;;;;;;;;4984688;28;20635;-61
2023/05/07 02:28:06;;;;;;;7.55;5.03;;;;;;;;;;4988457;28;20389;-60
2023/05/07 02:30:44;;;;;;;5.05;4.45;;;;;;;;;;4971301;28;20612;-61
2023/05/07 02:33:12;;;;;;;4.93;4.43;;;;;;;;;;4996766;28;20487;-61
2023/05/07 02:35:38;;;;;;;4.85;4.45;;;;;;;;;;4996893;28;20072;-61
2023/05/07 02:38:03;;;;;;;4.70;4.30;;;;;;;;;;4985539;28;20022;-62
2023/05/07 02:40:29;;;;;;;3.97;3.67;;;;;;;;;;4978714;28;20061;-61
2023/05/07 02:42:55;;;;;;;6.13;4.50;;;;;;;;;;4981365;28;20430;-61
2023/05/07 02:45:20;;;;;;;4.32;3.92;;;;;;;;;;4972193;28;20041;-61
2023/05/07 02:47:48;;;;;;;4.28;3.92;;;;;;;;;;4980838;28;20034;-61
2023/05/07 02:50:14;;;;;;;4.40;4.10;;;;;;;;;;4982905;28;20426;-61
2023/05/07 02:52:40;;;;;;;5.20;4.35;;;;;;;;;;4971627;28;20113;-62
2023/05/07 02:55:05;;;;;;;4.55;3.70;;;;;;;;;;4978961;28;20045;-60
2023/05/07 02:57:31;;;;;;;5.00;4.50;;;;;;;;;;4980587;28;20073;-62
2023/05/07 02:59:57;;;;;;;5.25;4.75;;;;;;;;;;4985506;28;20034;-60
2023/05/07 03:02:24;;;;;;;4.75;4.35;;;;;;;;;;4996665;28;20041;-61
2023/05/07 03:04:50;;;;;;;5.63;5.13;;;;;;;;;;4983544;28;20069;-62
2023/05/07 03:07:15;;;;;;;7.20;4.68;;;;;;;;;;4983988;28;20039;-60
2023/05/07 03:09:41;;;;;;;4.45;4.05;;;;;;;;;;4981894;28;20026;-62
2023/05/07 03:12:06;;;;;;;6.38;4.70;;;;;;;;;;4971940;28;20038;-61
2023/05/07 03:14:32;;;;;;;5.30;4.80;;;;;;;;;;4963076;28;20025;-62
2023/05/07 03:16:57;;;;;;;6.18;5.28;;;;;;;;;;4980451;28;20066;-60
2023/05/07 03:19:24;;;;;;;5.53;5.07;;;;;;;;;;4976403;28;20104;-60
2023/05/07 03:21:50;;;;;;;5.93;4.72;;;;;;;;;;4981060;28;20038;-60
2023/05/07 03:24:16;;;;;;;4.90;4.50;;;;;;;;;;4994040;28;20034;-62
2023/05/07 03:26:41;;;;;;;5.13;4.63;;;;;;;;;;4980725;28;20047;-63
2023/05/07 03:29:07;;;;;;;4.72;4.30;;;;;;;;;;4987671;28;20882;-61
2023/05/07 03:31:33;;;;;;;6.10;4.85;;;;;;;;;;4986159;28;20389;-60
2023/05/07 03:34:00;;;;;;;5.13;4.47;;;;;;;;;;4985357;28;20128;-60
2023/05/07 03:36:27;;;;;;;5.47;4.97;;;;;;;;;;4986364;28;20687;-60
2023/05/07 03:38:53;;;;;;;4.00;3.65;;;;;;;;;;4980711;28;20035;-61
2023/05/07 03:41:22;;;;;;;4.65;4.25;;;;;;;;;;4976450;28;20496;-61
2023/05/07 03:43:47;;;;;;;6.00;4.40;;;;;;;;;;4980614;28;20452;-60
2023/05/07 03:46:13;;;;;;;5.65;4.07;;;;;;;;;;4985347;28;20049;-61
2023/05/07 03:48:39;;;;;;;4.88;4.38;;;;;;;;;;4985455;28;20516;-60
2023/05/07 03:51:05;;;;;;;6.28;4.57;;;;;;;;;;4981181;28;20042;-61
2023/05/07 03:53:32;;;;;;;5.68;4.40;;;;;;;;;;4982272;28;20129;-61
2023/05/07 03:55:57;;;;;;;4.00;3.70;;;;;;;;;;4983424;28;20018;-61
2023/05/07 03:58:23;;;;;;;4.90;4.20;;;;;;;;;;4981224;28;20114;-60
2023/05/07 04:00:50;;;;;;;4.18;3.78;;;;;;;;;;4982613;28;20042;-61
2023/05/07 04:03:23;;;;;;;4.28;3.88;;;;;;;;;;4985274;28;20129;-60
2023/05/07 04:05:49;;;;;;;3.90;3.45;;;;;;;;;;4983012;28;20538;-64
2023/05/07 04:08:15;;;;;;;4.30;3.85;;;;;;;;;;4982207;28;20513;-61
2023/05/07 04:10:45;;;;;;;3.53;3.30;;;;;;;;;;4979566;28;20064;-61
2023/05/07 04:13:12;;;;;;;3.60;3.30;;;;;;;;;;4968624;28;20035;-60
2023/05/07 04:15:37;;;;;;;3.65;3.30;;;;;;;;;;4971408;28;20528;-61
2023/05/07 04:18:06;;;;;;;3.10;2.80;;;;;;;;;;4973500;28;20120;-61
2023/05/07 04:20:34;;;;;;;5.32;3.40;;;;;;;;;;4998791;28;20601;-61
2023/05/07 04:23:01;;;;;;;3.67;3.30;;;;;;;;;;4985598;28;20037;-61
2023/05/07 04:25:28;;;;;;;3.20;2.95;;;;;;;;;;4987289;28;20052;-61
2023/05/07 04:28:00;;;;;;;4.95;4.43;;;;;;;;;;4986444;28;20474;-61
2023/05/07 04:30:27;;;;;;;8.48;7.55;;;;;;;;;;4982936;28;20435;-61
2023/05/07 04:32:53;;;;;;;9.40;8.50;;;;;;;;;;4983767;28;20593;-60
2023/05/07 04:35:19;;;;;;;7.10;6.50;;;;;;;;;;4981939;28;20066;-60
2023/05/07 04:37:44;;;;;;;7.45;6.85;;;;;;;;;;4985802;28;20113;-61
2023/05/07 04:40:11;;;;;;;5.63;5.22;;;;;;;;;;4980975;28;20034;-61
2023/05/07 04:42:36;;;;;;;6.13;5.60;;;;;;;;;;4982718;28;20130;-60
2023/05/07 04:45:02;;;;;;;5.18;3.95;;;;;;;;;;4981545;28;20375;-60
2023/05/07 04:47:30;;;;;;;4.22;3.83;;;;;;;;;;4973606;28;20035;-60
2023/05/07 04:49:57;;;;;;;4.47;3.90;;;;;;;;;;4980259;28;20125;-62
2023/05/07 04:52:23;;;;;;;4.20;3.90;;;;;;;;;;4980221;28;20038;-58
2023/05/07 04:54:48;;;;;;;5.90;5.35;;;;;;;;;;4983183;28;20085;-58
2023/05/07 04:57:14;;;;;;;6.97;5.30;;;;;;;;;;4979373;28;20501;-60
2023/05/07 04:59:41;;;;;;;14.85;9.18;;;;;;;;;;4981026;28;20061;-58
2023/05/07 05:02:07;;;;;;;12.18;8.05;;;;;;;;;;4973282;28;20125;-58
2023/05/07 05:04:33;;;;;;;8.98;7.32;;;;;;;;;;4987099;28;20068;-58
2023/05/07 05:06:58;;;;;;;5.38;4.88;;;;;;;;;;4971245;28;20576;-58
2023/05/07 05:09:24;;;;;;;5.15;4.28;;;;;;;;;;4981261;28;20038;-59
2023/05/07 05:11:50;;;;;;;4.40;4.00;;;;;;;;;;4983854;28;20034;-59
2023/05/07 05:14:15;;;;;;;7.22;4.43;;;;;;;;;;4982929;28;20050;-58
2023/05/07 05:16:41;;;;;;;4.55;4.15;;;;;;;;;;4981997;28;20107;-57
2023/05/07 05:19:06;;;;;;;3.90;3.60;;;;;;;;;;4983952;28;20173;-58
2023/05/07 05:21:35;;;;;;;4.72;3.28;;;;;;;;;;4996253;28;20072;-58
2023/05/07 05:24:06;;;;;;;4.85;4.22;;;;;;;;;;4972971;28;20133;-57
2023/05/07 05:26:31;;;;;;;4.32;3.92;;;;;;;;;;4982826;28;20137;-59
2023/05/07 05:28:57;;;;;;;4.97;4.15;;;;;;;;;;4984539;28;20058;-56
2023/05/07 05:31:24;;;;;;;5.55;5.05;;;;;;;;;;4986953;28;20050;-59
2023/05/07 05:33:50;;;;;;;5.03;4.50;;;;;;;;;;4962074;28;20118;-60
2023/05/07 05:36:16;;;;;;;4.25;3.95;;;;;;;;;;4981992;28;20425;-61
2023/05/07 05:38:44;;;;;;;4.60;4.20;;;;;;;;;;4984672;28;20053;-59
2023/05/07 05:41:10;;;;;;;4.22;3.85;;;;;;;;;;4980202;28;20236;-60
2023/05/07 05:43:36;;;;;;;5.15;4.68;;;;;;;;;;4977496;28;20500;-61
2023/05/07 05:46:01;;;;;;;6.10;4.93;;;;;;;;;;4983476;28;20031;-60
2023/05/07 05:48:29;;;;;;;6.05;5.45;;;;;;;;;;4971064;28;20117;-60
2023/05/07 05:50:54;;;;;;;6.95;6.32;;;;;;;;;;4983433;28;20034;-57
2023/05/07 05:53:20;;;;;;;9.27;6.57;;;;;;;;;;4988081;28;20286;-59
2023/05/07 05:55:45;;;;;;;8.65;6.82;;;;;;;;;;4983988;28;20217;-59
2023/05/07 05:58:11;;;;;;;10.85;8.18;;;;;;;;;;4977296;28;20044;-61
2023/05/07 06:00:41;;;;;;;9.88;8.25;;;;;;;;;;4982602;28;20445;-58
2023/05/07 06:03:06;;;;;;;9.68;8.70;;;;;;;;;;4985795;28;20034;-58
2023/05/07 06:05:33;;;;;;;11.32;9.43;;;;;;;;;;4992303;28;20124;-57
2023/05/07 06:07:58;;;;;;;12.40;8.88;;;;;;;;;;4968690;28;20317;-57
2023/05/07 06:10:27;;;;;;;11.00;9.80;;;;;;;;;;4983484;28;20041;-57
2023/05/07 06:12:53;;;;;;;11.80;8.73;;;;;;;;;;4984179;28;20035;-58
2023/05/07 06:15:19;;;;;;;12.15;9.80;;;;;;;;;;4975895;28;20041;-58
2023/05/07 06:17:45;;;;;;;12.65;10.73;;;;;;;;;;4974657;28;20082;-58
2023/05/07 06:20:10;;;;;;;11.68;10.43;;;;;;;;;;4976428;28;20370;-56
2023/05/07 06:22:37;;;;;;;14.77;10.35;;;;;;;;;;4979379;28;20077;-58
2023/05/07 06:25:04;;;;;;;13.18;9.80;;;;;;;;;;4978987;28;20468;-58
2023/05/07 06:27:29;;;;;;;13.60;12.05;;;;;;;;;;4981081;28;20061;-58
2023/05/07 06:29:56;;;;;;;12.68;9.38;;;;;;;;;;4977803;28;20042;-58
2023/05/07 06:32:21;;;;;;;12.27;10.05;;;;;;;;;;4984565;28;20038;-58
2023/05/07 06:34:48;;;;;;;11.60;9.15;;;;;;;;;;4996314;28;20568;-58
2023/05/07 06:37:14;;;;;;;10.25;9.07;;;;;;;;;;4994284;28;20070;-58
2023/05/07 06:39:49;;;;;;;;;;;;;;;;;;4985853;28;20061;-57
2023/05/07 06:42:15;;;;;;;13.25;10.73;;;;;;;;;;4970796;28;20008;-59
2023/05/07 06:44:42;;;;;;;11.63;9.15;;;;;;;;;;4996986;28;20034;-58
2023/05/07 06:47:11;;;;;;;11.52;10.32;;;;;;;;;;4979607;28;20035;-58
2023/05/07 06:49:38;;;;;;;12.60;11.30;;;;;;;;;;4979899;28;20033;-58
2023/05/07 06:52:04;;;;;;;11.43;9.85;;;;;;;;;;4985399;28;20029;-57
2023/05/07 06:54:29;;;;;;;13.25;10.82;;;;;;;;;;4981376;28;20046;-57
2023/05/07 06:56:55;;;;;;;11.25;10.02;;;;;;;;;;4982153;28;20084;-57
2023/05/07 06:59:23;;;;;;;11.60;10.40;;;;;;;;;;4983747;28;20181;-58
2023/05/07 07:01:49;;;;;;;12.68;10.82;;;;;;;;;;4986946;28;20089;-57
2023/05/07 07:04:14;;;;;;;12.73;11.40;;;;;;;;;;4962436;28;20057;-56
2023/05/07 07:06:42;;;;;;;14.60;11.55;;;;;;;;;;4982476;28;20604;-57
2023/05/07 07:09:11;;;;;;;14.85;11.38;;;;;;;;;;4979989;28;20037;-57
2023/05/07 07:11:37;;;;;;;13.40;11.65;;;;;;;;;;4982555;28;20405;-59
2023/05/07 07:14:04;;;;;;;13.65;12.15;;;;;;;;;;4984380;28;20936;-58
2023/05/07 07:16:33;;;;;;;12.93;11.63;;;;;;;;;;4996894;28;20551;-59
2023/05/07 07:18:59;;;;;;;16.45;12.02;;;;;;;;;;4976968;28;20041;-57
2023/05/07 07:21:25;;;;;;;12.77;11.45;;;;;;;;;;4981871;28;20051;-58
2023/05/07 07:23:51;;;;;;;16.45;13.07;;;;;;;;;;4977550;28;20125;-57
2023/05/07 07:26:19;;;;;;;12.20;10.95;;;;;;;;;;4979167;28;20046;-59
2023/05/07 07:28:47;;;;;;;12.93;11.68;;;;;;;;;;4985506;28;20480;-59
2023/05/07 07:31:16;;;;;;;14.52;11.52;;;;;;;;;;4996060;28;20034;-57
2023/05/07 07:33:43;;;;;;;14.73;13.15;;;;;;;;;;4985168;28;20374;-59
2023/05/07 07:36:08;;;;;;;14.10;12.70;;;;;;;;;;4982744;28;20041;-58
2023/05/07 07:38:34;;;;;;;14.07;12.23;;;;;;;;;;4978217;28;20416;-59
2023/05/07 07:41:01;;;;;;;16.35;12.57;;;;;;;;;;4981845;28;20531;-61
2023/05/07 07:43:29;;;;;;;17.17;13.48;;;;;;;;;;4963250;28;20047;-59
2023/05/07 07:45:54;;;;;;;14.50;12.73;;;;;;;;;;4981791;28;20115;-59
2023/05/07 07:48:20;;;;;;;22.35;15.70;;;;;;;;;;4984175;28;20445;-60
2023/05/07 07:50:48;;;;;;;17.85;13.65;;;;;;;;;;4987803;28;20101;-58
2023/05/07 07:53:15;;;;;;;15.93;14.07;;;;;;;;;;4987048;28;20715;-58
2023/05/07 07:55:41;;;;;;;17.92;16.00;;;;;;;;;;4974487;28;20041;-60
2023/05/07 07:58:07;;;;;;;16.90;15.18;;;;;;;;;;4982831;28;20489;-58
2023/05/07 08:00:33;;;;;;;16.75;13.65;;;;;;;;;;4971384;28;20040;-59
2023/05/07 08:03:00;;;;;;;13.23;11.82;;;;;;;;;;4983501;28;20415;-59
2023/05/07 08:05:30;;;;;;;13.80;12.30;;;;;;;;;;4971155;28;20041;-59
2023/05/07 08:07:58;;;;;;;14.23;11.75;;;;;;;;;;4982235;28;20030;-58
2023/05/07 08:10:28;;;;;;;13.38;11.68;;;;;;;;;;4972813;28;20096;-57
2023/05/07 08:13:01;;;;;;;15.48;11.73;;;;;;;;;;4988061;28;20484;-58
2023/05/07 08:15:27;;;;;;;13.48;12.07;;;;;;;;;;4982938;28;20624;-58
2023/05/07 08:17:52;;;;;;;15.00;13.40;;;;;;;;;;4984712;28;20541;-58
2023/05/07 08:20:18;;;;;;;16.80;13.02;;;;;;;;;;4985885;28;20046;-57
2023/05/07 08:22:44;;;;;;;16.63;13.52;;;;;;;;;;4989914;28;20406;-60
2023/05/07 08:25:09;;;;;;;14.65;12.88;;;;;;;;;;4984217;28;20049;-57
2023/05/07 08:27:35;;;;;;;18.10;13.95;;;;;;;;;;4988751;28;20125;-58
2023/05/07 08:30:01;;;;;;;14.18;12.55;;;;;;;;;;4984482;28;20087;-59
2023/05/07 08:32:27;;;;;;;14.85;13.30;;;;;;;;;;4982867;28;20465;-57
2023/05/07 08:34:53;;;;;;;17.40;13.73;;;;;;;;;;4983187;28;20054;-58
2023/05/07 08:37:18;;;;;;;14.27;12.63;;;;;;;;;;4982957;28;20045;-56
2023/05/07 08:39:45;;;;;;;15.02;12.85;;;;;;;;;;4982918;28;20137;-60
2023/05/07 08:42:17;;;;;;;13.02;11.52;;;;;;;;;;4986856;28;20038;-57
2023/05/07 08:44:46;;;;;;;14.63;12.38;;;;;;;;;;4986693;28;20040;-57
2023/05/07 08:47:12;;;;;;;16.52;12.13;;;;;;;;;;4984774;28;20035;-56
2023/05/07 08:49:38;;;;;;;16.27;12.95;;;;;;;;;;4980098;28;20035;-58
2023/05/07 08:52:06;;;;;;;16.85;13.15;;;;;;;;;;4984074;28;20639;-57
2023/05/07 08:54:33;;;;;;;14.07;12.65;;;;;;;;;;4981827;28;20042;-58
2023/05/07 08:56:59;;;;;;;12.85;11.43;;;;;;;;;;4982444;28;20030;-57
2023/05/07 08:59:25;;;;;;;15.57;13.05;;;;;;;;;;4987258;28;20049;-57
2023/05/07 09:01:51;;;;;;;17.42;13.55;;;;;;;;;;4988769;28;20033;-56
2023/05/07 09:04:17;;;;;;;17.33;14.07;;;;;;;;;;4999545;28;20540;-58
2023/05/07 09:06:43;;;;;;;17.42;14.30;;;;;;;;;;4986119;28;20060;-58
2023/05/07 09:09:14;;;;;;;16.23;14.52;;;;;;;;;;4981075;28;20039;-59
2023/05/07 09:11:41;;;;;;;15.73;13.98;;;;;;;;;;4983878;28;20050;-62
2023/05/07 09:14:07;;;;;;;14.68;13.15;;;;;;;;;;4979537;28;20023;-61
2023/05/07 09:16:37;;;;;;;16.80;13.75;;;;;;;;;;4992774;28;20215;-61
2023/05/07 09:19:03;;;;;;;19.25;15.38;;;;;;;;;;4997050;28;20494;-59
2023/05/07 09:21:29;;;;;;;18.42;13.77;;;;;;;;;;4986231;28;20068;-59
2023/05/07 09:23:58;;;;;;;18.02;15.27;;;;;;;;;;4988532;28;20080;-61
2023/05/07 09:26:32;;;;;;;17.13;14.15;;;;;;;;;;4981870;28;20390;-58
2023/05/07 09:28:58;;;;;;;16.70;13.35;;;;;;;;;;4983030;28;20391;-60
2023/05/07 09:31:24;;;;;;;16.40;14.70;;;;;;;;;;4980953;28;20068;-60
2023/05/07 09:33:52;;;;;;;14.00;12.23;;;;;;;;;;4991016;28;20037;-61
2023/05/07 09:36:18;;;;;;;15.07;12.60;;;;;;;;;;4988952;28;20042;-57
2023/05/07 09:38:44;;;;;;;17.02;14.75;;;;;;;;;;4986260;28;20303;-61
2023/05/07 09:41:11;;;;;;;15.32;12.85;;;;;;;;;;4986435;28;20076;-65
2023/05/07 09:43:55;;;;;;;19.40;15.48;;;;;;;;;;4984751;28;20565;-62
2023/05/07 09:46:29;;;;;;;16.98;13.55;;;;;;;;;;4983867;28;20129;-67
2023/05/07 09:48:58;;;;;;;15.90;13.57;;;;;;;;;;4981311;28;20483;-71
2023/05/07 09:51:31;;;;;;;16.70;12.93;;;;;;;;;;5001677;28;20045;-62
2023/05/07 09:54:00;;;;;;;15.50;12.35;;;;;;;;;;4981739;28;20041;-65
2023/05/07 09:56:27;;;;;;;15.43;13.82;;;;;;;;;;4999690;28;20043;-61
2023/05/07 09:58:55;;;;;;;15.73;14.23;;;;;;;;;;4989082;28;20049;-63
2023/05/07 10:01:22;;;;;;;14.70;13.20;;;;;;;;;;4983886;28;20109;-66
2023/05/07 10:03:50;;;;;;;14.20;12.57;;;;;;;;;;4999575;28;20038;-62
2023/05/07 10:06:16;;;;;;;14.35;12.80;;;;;;;;;;4984930;28;20371;-61
2023/05/07 10:08:42;;;;;;;12.55;11.25;;;;;;;;;;4982384;28;20046;-62
2023/05/07 10:11:09;;;;;;;14.30;12.70;;;;;;;;;;4985625;28;20036;-61
2023/05/07 10:13:38;;;;;;;15.13;13.23;;;;;;;;;;4971507;28;20065;-61
2023/05/07 10:16:06;;;;;;;13.25;11.88;;;;;;;;;;4983811;28;20038;-60
2023/05/07 10:18:38;;;;;;;13.50;12.00;;;;;;;;;;4987262;28;20173;-60
2023/05/07 10:21:16;;;;;;;14.20;12.75;;;;;;;;;;4972681;28;20034;-62
2023/05/07 10:23:44;;;;;;;14.20;12.27;;;;;;;;;;4985534;28;20038;-56
2023/05/07 10:26:10;;;;;;;14.93;12.35;;;;;;;;;;4973638;28;20036;-60
2023/05/07 10:28:41;;;;;;;17.30;11.60;;;;;;;;;;4974359;28;20026;-61
2023/05/07 10:31:15;;;;;;;13.30;11.88;;;;;;;;;;4990768;28;20224;-60
2023/05/07 10:33:45;;;;;;;13.20;11.90;;;;;;;;;;4982638;28;20695;-62
2023/05/07 10:36:12;;;;;;;12.82;11.32;;;;;;;;;;4981488;28;20054;-63
2023/05/07 10:38:39;;;;;;;13.32;11.90;;;;;;;;;;4967390;28;20367;-63
2023/05/07 10:41:05;;;;;;;13.40;11.98;;;;;;;;;;4974384;28;20034;-59
2023/05/07 10:43:40;;;;;;;14.68;13.18;;;;;;;;;;4986230;28;20047;-64
2023/05/07 10:46:10;;;;;;;12.83;11.60;;;;;;;;;;4991063;28;20054;-65
2023/05/07 10:48:55;;;;;;;15.25;11.10;;;;;;;;;;4985993;28;20295;-64
2023/05/07 10:51:21;;;;;;;13.45;11.52;;;;;;;;;;4985232;28;20038;-64
2023/05/07 10:54:15;;;;;;;12.93;11.60;;;;;;;;;;4993171;28;20037;-64
2023/05/07 10:56:52;;;;;;;10.98;9.90;;;;;;;;;;4983142;28;20046;-62
2023/05/07 10:59:41;;;;;;;12.30;10.88;;;;;;;;;;4977475;28;20038;-66
2023/05/07 11:02:17;;;;;;;12.57;10.88;;;;;;;;;;4979561;28;20053;-63
2023/05/07 11:05:09;;;;;;;11.50;10.32;;;;;;;;;;4999986;28;20077;-63
2023/05/07 11:07:35;;;;;;;10.93;9.63;;;;;;;;;;4971626;28;20339;-59
2023/05/07 11:10:08;;;;;;;11.23;10.07;;;;;;;;;;4979928;28;20045;-62
2023/05/07 11:12:47;;;;;;;13.90;12.52;;;;;;;;;;5001762;28;20304;-63
2023/05/07 11:15:37;;;;;;;12.70;11.40;;;;;;;;;;4994673;28;20782;-63
2023/05/07 11:18:08;;;;;;;15.32;12.68;;;;;;;;;;4981030;28;20045;-64
2023/05/07 11:20:47;;;;;;;12.75;11.43;;;;;;;;;;4988163;28;20435;-64
2023/05/07 11:23:40;;;;;;;13.88;12.48;;;;;;;;;;4976602;28;20074;-64
2023/05/07 11:26:27;;;;;;;12.75;11.45;;;;;;;;;;4982785;28;20998;-62
2023/05/07 11:28:53;;;;;;;13.57;11.20;;;;;;;;;;4999481;28;20117;-61
2023/05/07 11:31:23;;;;;;;12.52;11.20;;;;;;;;;;4998325;28;20041;-62
2023/05/07 11:33:50;;;;;;;11.82;10.55;;;;;;;;;;4997087;28;20042;-60
2023/05/07 11:36:20;;;;;;;11.07;9.98;;;;;;;;;;4997399;28;20936;-62
2023/05/07 11:38:47;;;;;;;12.70;11.45;;;;;;;;;;5000063;28;20038;-63
2023/05/07 11:41:12;;;;;;;12.40;11.05;;;;;;;;;;4984231;28;20042;-67
2023/05/07 11:43:40;;;;;;;10.57;9.48;;;;;;;;;;4986563;28;20043;-63
2023/05/07 11:46:09;;;;;;;11.07;9.13;;;;;;;;;;4982721;28;20084;-63
2023/05/07 11:48:35;;;;;;;12.70;9.57;;;;;;;;;;4987392;28;20038;-67
2023/05/07 11:51:02;;;;;;;8.57;7.82;;;;;;;;;;4984414;28;20494;-64
2023/05/07 11:53:28;;;;;;;10.40;9.40;;;;;;;;;;4982506;28;20030;-63
2023/05/07 11:55:56;;;;;;;12.38;11.07;;;;;;;;;;4985515;28;20046;-65
2023/05/07 11:58:23;;;;;;;13.13;11.68;;;;;;;;;;4983247;28;20089;-65
2023/05/07 12:00:52;;;;;;;12.23;11.13;;;;;;;;;;4981971;28;20038;-65
2023/05/07 12:03:18;;;;;;;12.32;11.20;;;;;;;;;;4984869;28;20069;-65
2023/05/07 12:05:47;;;;;;;12.63;10.70;;;;;;;;;;4987721;28;20137;-64
2023/05/07 12:08:16;;;;;;;10.48;9.38;;;;;;;;;;4982803;28;20043;-67
2023/05/07 12:10:42;;;;;;;11.75;10.55;;;;;;;;;;4984757;28;20057;-66
2023/05/07 12:13:14;;;;;;;12.35;11.05;;;;;;;;;;4969033;28;20042;-64
2023/05/07 12:15:40;;;;;;;11.90;10.70;;;;;;;;;;4980711;28;20069;-65
2023/05/07 12:18:06;;;;;;;13.38;11.98;;;;;;;;;;4978422;28;20185;-65
2023/05/07 12:20:31;;;;;;;13.80;12.50;;;;;;;;;;4984302;28;20074;-65
2023/05/07 12:22:57;;;;;;;12.30;10.23;;;;;;;;;;4984462;28;20030;-64
2023/05/07 12:25:22;;;;;;;12.57;11.38;;;;;;;;;;4988575;28;20100;-65
2023/05/07 12:27:51;;;;;;;12.43;11.23;;;;;;;;;;4988263;28;20082;-64
2023/05/07 12:30:17;;;;;;;15.05;10.48;;;;;;;;;;4984209;28;20034;-65
2023/05/07 12:32:44;;;;;;;10.43;9.27;;;;;;;;;;4983623;28;20045;-62
2023/05/07 12:35:10;;;;;;;12.20;11.02;;;;;;;;;;4984915;28;20156;-62
2023/05/07 12:37:35;;;;;;;11.70;10.57;;;;;;;;;;4990762;28;20138;-62
2023/05/07 12:40:08;;;;;;;13.40;12.05;;;;;;;;;;4985704;28;20080;-62
2023/05/07 12:42:37;;;;;;;11.93;10.68;;;;;;;;;;4983946;28;20588;-61
2023/05/07 12:45:10;;;;;;;11.77;10.68;;;;;;;;;;4982955;28;20045;-63
2023/05/07 12:47:36;;;;;;;13.38;11.85;;;;;;;;;;4983380;28;20042;-65
2023/05/07 12:50:02;;;;;;;15.00;11.35;;;;;;;;;;4985350;28;20384;-64
2023/05/07 12:52:27;;;;;;;16.45;12.18;;;;;;;;;;4985189;28;20042;-64
2023/05/07 12:54:53;;;;;;;11.43;10.25;;;;;;;;;;4981265;28;20548;-64
2023/05/07 12:57:19;;;;;;;13.43;10.98;;;;;;;;;;4985287;28;20121;-68
2023/05/07 12:59:45;;;;;;;11.43;9.88;;;;;;;;;;4984264;28;20076;-63
2023/05/07 13:02:10;;;;;;;12.60;11.15;;;;;;;;;;4986854;28;20042;-63
2023/05/07 13:04:37;;;;;;;11.32;10.13;;;;;;;;;;4988022;28;20129;-64
2023/05/07 13:07:02;;;;;;;11.85;9.32;;;;;;;;;;4985324;28;20618;-65
2023/05/07 13:09:31;;;;;;;11.57;9.57;;;;;;;;;;4986074;28;20049;-66
2023/05/07 13:11:59;;;;;;;11.50;9.98;;;;;;;;;;4972336;28;20046;-63
2023/05/07 13:14:25;;;;;;;9.68;8.63;;;;;;;;;;4982590;28;20043;-57
2023/05/07 13:16:50;;;;;;;10.43;8.65;;;;;;;;;;4987576;28;20061;-64
2023/05/07 13:19:17;;;;;;;10.93;8.98;;;;;;;;;;4983193;28;20034;-65
2023/05/07 13:21:43;;;;;;;9.95;8.23;;;;;;;;;;4985280;28;20047;-64
2023/05/07 13:24:08;;;;;;;11.65;8.95;;;;;;;;;;4982803;28;20125;-64
2023/05/07 13:26:34;;;;;;;11.50;9.35;;;;;;;;;;4982814;28;20117;-64
2023/05/07 13:29:00;;;;;;;35.75;21.30;;;;;;;;;;4984158;28;20038;-65
2023/05/07 13:31:25;;;;;;;10.52;9.43;;;;;;;;;;4984145;28;20603;-66
2023/05/07 13:33:52;;;;;;;12.23;9.00;;;;;;;;;;4980602;28;20033;-65
2023/05/07 13:36:18;;;;;;;11.93;9.85;;;;;;;;;;4983071;28;20061;-64
2023/05/07 13:38:43;;;;;;;10.95;8.45;;;;;;;;;;4985567;28;20590;-64
2023/05/07 13:41:09;;;;;;;9.85;8.85;;;;;;;;;;4980326;28;20109;-64
2023/05/07 13:43:34;;;;;;;10.98;9.20;;;;;;;;;;4980674;28;20390;-64
2023/05/07 13:46:00;;;;;;;9.10;8.25;;;;;;;;;;4981078;28;20093;-63
2023/05/07 13:48:25;;;;;;;12.70;10.60;;;;;;;;;;4981301;28;20063;-63
2023/05/07 13:50:51;;;;;;;16.75;14.90;;;;;;;;;;4982796;28;20670;-63
2023/05/07 13:53:18;;;;;;;10.20;9.10;;;;;;;;;;4984281;28;20132;-62
2023/05/07 13:55:43;;;;;;;11.98;10.45;;;;;;;;;;4982150;28;20470;-63
2023/05/07 13:58:09;;;;;;;9.93;8.93;;;;;;;;;;4979993;28;20084;-62
2023/05/07 14:00:35;;;;;;;9.98;9.07;;;;;;;;;;4982456;28;20093;-60
2023/05/07 14:03:00;;;;;;;9.40;8.23;;;;;;;;;;4980560;28;20034;-60
2023/05/07 14:05:27;;;;;;;10.63;9.50;;;;;;;;;;4981251;28;20042;-60
2023/05/07 14:07:54;;;;;;;9.65;8.25;;;;;;;;;;4980298;28;20062;-60
2023/05/07 14:10:19;;;;;;;10.75;8.27;;;;;;;;;;4981517;28;20030;-60
2023/05/07 14:12:45;;;;;;;9.75;8.82;;;;;;;;;;4981112;28;20034;-60
2023/05/07 14:15:12;;;;;;;10.13;8.20;;;;;;;;;;4981921;28;20047;-61
2023/05/07 14:17:38;;;;;;;9.75;8.75;;;;;;;;;;4981762;28;20059;-65
2023/05/07 14:20:06;;;;;;;8.18;7.38;;;;;;;;;;4980953;28;20089;-61
2023/05/07 14:22:31;;;;;;;10.02;8.52;;;;;;;;;;4984346;28;20034;-63
2023/05/07 14:24:56;;;;;;;8.93;8.05;;;;;;;;;;4982412;28;20038;-62
2023/05/07 14:27:22;;;;;;;9.23;7.65;;;;;;;;;;4983360;28;20403;-63
2023/05/07 14:29:50;;;;;;;9.25;8.25;;;;;;;;;;4982818;28;20144;-62
2023/05/07 14:32:17;;;;;;;9.23;8.27;;;;;;;;;;4981514;28;20029;-63